sensor_id;sensor_type;location;lat;lon;timestamp;P1;durP1;ratioP1;P2;durP2;ratioP2
9819;SDS011;4949;48.482;9.206;2022-07-17T00:04:33;6.00;;;5.33;;
9819;SDS011;4949;48.482;9.206;2022-07-17T00:09:33;4.63;;;4.23;;
9819;SDS011;4949;48.482;9.206;2022-07-17T00:14:34;4.73;;;4.33;;
9819;SDS011;4949;48.482;9.206;2022-07-17T00:19:34;5.30;;;4.80;;
9819;SDS011;4949;48.482;9.206;2022-07-17T00:24:35;4.53;;;4.20;;
9819;SDS011;4949;48.482;9.206;2022-07-17T00:29:35;4.60;;;4.20;;
9819;SDS011;4949;48.482;9.206;2022-07-17T00:34:35;4.00;;;3.70;;
9819;SDS011;4949;48.482;9.206;2022-07-17T00:39:38;5.10;;;4.10;;
9819;SDS011;4949;48.482;9.206;2022-07-17T00:44:38;4.33;;;3.93;;
9819;SDS011;4949;48.482;9.206;2022-07-17T00:49:40;5.47;;;4.97;;
9819;SDS011;4949;48.482;9.206;2022-07-17T00:54:41;6.60;;;3.97;;
9819;SDS011;4949;48.482;9.206;2022-07-17T00:59:42;5.53;;;4.17;;
9819;SDS011;4949;48.482;9.206;2022-07-17T01:04:43;4.33;;;4.03;;
9819;SDS011;4949;48.482;9.206;2022-07-17T01:09:45;5.97;;;4.40;;
9819;SDS011;4949;48.482;9.206;2022-07-17T01:14:48;6.80;;;4.70;;
9819;SDS011;4949;48.482;9.206;2022-07-17T01:19:49;4.77;;;4.27;;
9819;SDS011;4949;48.482;9.206;2022-07-17T01:24:52;4.17;;;3.83;;
9819;SDS011;4949;48.482;9.206;2022-07-17T01:29:55;4.50;;;4.10;;
9819;SDS011;4949;48.482;9.206;2022-07-17T01:34:58;5.60;;;4.60;;
9819;SDS011;4949;48.482;9.206;2022-07-17T01:39:59;5.53;;;4.20;;
9819;SDS011;4949;48.482;9.206;2022-07-17T01:45:00;4.23;;;3.93;;
9819;SDS011;4949;48.482;9.206;2022-07-17T01:50:01;5.57;;;4.57;;
9819;SDS011;4949;48.482;9.206;2022-07-17T01:55:04;4.50;;;4.10;;
9819;SDS011;4949;48.482;9.206;2022-07-17T02:00:06;4.70;;;4.40;;
9819;SDS011;4949;48.482;9.206;2022-07-17T02:05:11;5.07;;;4.40;;
9819;SDS011;4949;48.482;9.206;2022-07-17T02:10:12;5.97;;;3.90;;
9819;SDS011;4949;48.482;9.206;2022-07-17T02:15:15;4.53;;;4.13;;
9819;SDS011;4949;48.482;9.206;2022-07-17T02:20:20;4.33;;;3.87;;
9819;SDS011;4949;48.482;9.206;2022-07-17T02:25:21;4.27;;;3.97;;
9819;SDS011;4949;48.482;9.206;2022-07-17T02:30:21;4.37;;;4.07;;
9819;SDS011;4949;48.482;9.206;2022-07-17T02:35:21;4.47;;;4.07;;
9819;SDS011;4949;48.482;9.206;2022-07-17T02:40:22;6.10;;;4.03;;
9819;SDS011;4949;48.482;9.206;2022-07-17T02:45:22;4.83;;;4.37;;
9819;SDS011;4949;48.482;9.206;2022-07-17T02:50:24;6.10;;;4.70;;
9819;SDS011;4949;48.482;9.206;2022-07-17T02:55:25;4.80;;;4.30;;
9819;SDS011;4949;48.482;9.206;2022-07-17T03:00:25;5.40;;;5.00;;
9819;SDS011;4949;48.482;9.206;2022-07-17T03:05:28;5.10;;;4.57;;
9819;SDS011;4949;48.482;9.206;2022-07-17T03:10:29;3.97;;;3.67;;
9819;SDS011;4949;48.482;9.206;2022-07-17T03:15:29;4.73;;;4.23;;
9819;SDS011;4949;48.482;9.206;2022-07-17T03:20:29;5.17;;;4.73;;
9819;SDS011;4949;48.482;9.206;2022-07-17T03:25:30;4.20;;;3.80;;
9819;SDS011;4949;48.482;9.206;2022-07-17T03:30:32;6.03;;;4.60;;
9819;SDS011;4949;48.482;9.206;2022-07-17T03:35:33;4.53;;;4.13;;
9819;SDS011;4949;48.482;9.206;2022-07-17T03:40:33;7.50;;;5.00;;
9819;SDS011;4949;48.482;9.206;2022-07-17T03:45:33;5.37;;;4.27;;
9819;SDS011;4949;48.482;9.206;2022-07-17T03:50:34;5.27;;;4.83;;
9819;SDS011;4949;48.482;9.206;2022-07-17T03:55:34;4.30;;;4.00;;
9819;SDS011;4949;48.482;9.206;2022-07-17T04:00:37;6.00;;;4.33;;
9819;SDS011;4949;48.482;9.206;2022-07-17T04:05:40;5.07;;;4.57;;
9819;SDS011;4949;48.482;9.206;2022-07-17T04:10:40;4.90;;;4.50;;
9819;SDS011;4949;48.482;9.206;2022-07-17T04:15:40;5.10;;;4.60;;
9819;SDS011;4949;48.482;9.206;2022-07-17T04:20:50;5.80;;;5.30;;
9819;SDS011;4949;48.482;9.206;2022-07-17T04:25:51;5.10;;;4.60;;
9819;SDS011;4949;48.482;9.206;2022-07-17T04:30:52;5.43;;;4.93;;
9819;SDS011;4949;48.482;9.206;2022-07-17T04:35:52;6.60;;;5.40;;
9819;SDS011;4949;48.482;9.206;2022-07-17T04:40:53;12.80;;;6.03;;
9819;SDS011;4949;48.482;9.206;2022-07-17T04:45:53;5.73;;;5.23;;
9819;SDS011;4949;48.482;9.206;2022-07-17T04:50:53;5.10;;;4.70;;
9819;SDS011;4949;48.482;9.206;2022-07-17T04:55:54;4.90;;;4.20;;
9819;SDS011;4949;48.482;9.206;2022-07-17T05:00:54;5.63;;;5.10;;
9819;SDS011;4949;48.482;9.206;2022-07-17T05:05:54;5.90;;;5.40;;
9819;SDS011;4949;48.482;9.206;2022-07-17T05:10:55;8.33;;;7.40;;
9819;SDS011;4949;48.482;9.206;2022-07-17T05:15:55;8.13;;;7.23;;
9819;SDS011;4949;48.482;9.206;2022-07-17T05:20:58;6.03;;;5.63;;
9819;SDS011;4949;48.482;9.206;2022-07-17T05:25:58;6.30;;;5.80;;
9819;SDS011;4949;48.482;9.206;2022-07-17T05:30:58;6.87;;;6.27;;
9819;SDS011;4949;48.482;9.206;2022-07-17T05:36:03;7.57;;;6.70;;
9819;SDS011;4949;48.482;9.206;2022-07-17T05:41:03;5.97;;;5.37;;
9819;SDS011;4949;48.482;9.206;2022-07-17T05:46:04;6.20;;;5.70;;
9819;SDS011;4949;48.482;9.206;2022-07-17T05:51:05;7.07;;;6.40;;
9819;SDS011;4949;48.482;9.206;2022-07-17T05:56:05;6.83;;;6.17;;
9819;SDS011;4949;48.482;9.206;2022-07-17T06:01:06;7.77;;;5.97;;
9819;SDS011;4949;48.482;9.206;2022-07-17T06:06:06;5.93;;;5.33;;
9819;SDS011;4949;48.482;9.206;2022-07-17T06:11:06;6.13;;;5.20;;
9819;SDS011;4949;48.482;9.206;2022-07-17T06:16:09;5.40;;;4.90;;
9819;SDS011;4949;48.482;9.206;2022-07-17T06:21:09;5.03;;;4.67;;
9819;SDS011;4949;48.482;9.206;2022-07-17T06:26:10;5.57;;;5.17;;
9819;SDS011;4949;48.482;9.206;2022-07-17T06:31:10;4.27;;;3.97;;
9819;SDS011;4949;48.482;9.206;2022-07-17T06:36:11;5.70;;;4.90;;
9819;SDS011;4949;48.482;9.206;2022-07-17T06:41:11;5.77;;;4.90;;
9819;SDS011;4949;48.482;9.206;2022-07-17T06:46:11;5.50;;;5.00;;
9819;SDS011;4949;48.482;9.206;2022-07-17T06:51:12;7.13;;;5.10;;
9819;SDS011;4949;48.482;9.206;2022-07-17T06:56:12;5.33;;;4.93;;
9819;SDS011;4949;48.482;9.206;2022-07-17T07:01:12;6.63;;;5.97;;
9819;SDS011;4949;48.482;9.206;2022-07-17T07:06:13;5.90;;;5.40;;
9819;SDS011;4949;48.482;9.206;2022-07-17T07:11:13;6.13;;;5.30;;
9819;SDS011;4949;48.482;9.206;2022-07-17T07:16:13;5.00;;;4.60;;
9819;SDS011;4949;48.482;9.206;2022-07-17T07:21:14;5.30;;;4.90;;
9819;SDS011;4949;48.482;9.206;2022-07-17T07:26:14;5.40;;;5.00;;
9819;SDS011;4949;48.482;9.206;2022-07-17T07:31:15;5.43;;;4.93;;
9819;SDS011;4949;48.482;9.206;2022-07-17T07:36:17;5.37;;;4.97;;
9819;SDS011;4949;48.482;9.206;2022-07-17T07:41:18;5.40;;;4.90;;
9819;SDS011;4949;48.482;9.206;2022-07-17T07:46:18;4.70;;;4.30;;
9819;SDS011;4949;48.482;9.206;2022-07-17T07:51:19;4.60;;;4.20;;
9819;SDS011;4949;48.482;9.206;2022-07-17T07:56:20;4.63;;;4.10;;
9819;SDS011;4949;48.482;9.206;2022-07-17T08:01:23;7.13;;;4.20;;
9819;SDS011;4949;48.482;9.206;2022-07-17T08:06:23;4.37;;;4.00;;
9819;SDS011;4949;48.482;9.206;2022-07-17T08:11:26;4.90;;;4.50;;
9819;SDS011;4949;48.482;9.206;2022-07-17T08:16:27;5.00;;;4.50;;
9819;SDS011;4949;48.482;9.206;2022-07-17T08:21:30;5.03;;;4.53;;
9819;SDS011;4949;48.482;9.206;2022-07-17T08:26:30;4.97;;;4.47;;
9819;SDS011;4949;48.482;9.206;2022-07-17T08:31:31;5.17;;;4.77;;
9819;SDS011;4949;48.482;9.206;2022-07-17T08:36:32;4.97;;;4.57;;
9819;SDS011;4949;48.482;9.206;2022-07-17T08:41:32;5.07;;;4.67;;
9819;SDS011;4949;48.482;9.206;2022-07-17T08:46:38;4.63;;;4.33;;
9819;SDS011;4949;48.482;9.206;2022-07-17T08:51:41;4.80;;;4.40;;
9819;SDS011;4949;48.482;9.206;2022-07-17T08:56:44;6.10;;;4.00;;
9819;SDS011;4949;48.482;9.206;2022-07-17T09:01:45;4.57;;;3.43;;
9819;SDS011;4949;48.482;9.206;2022-07-17T09:06:45;4.40;;;4.00;;
9819;SDS011;4949;48.482;9.206;2022-07-17T09:11:47;4.17;;;3.87;;
9819;SDS011;4949;48.482;9.206;2022-07-17T09:16:56;3.97;;;3.40;;
9819;SDS011;4949;48.482;9.206;2022-07-17T09:32:30;3.40;;;3.20;;
9819;SDS011;4949;48.482;9.206;2022-07-17T09:37:33;4.87;;;3.73;;
9819;SDS011;4949;48.482;9.206;2022-07-17T09:42:34;3.80;;;3.50;;
9819;SDS011;4949;48.482;9.206;2022-07-17T09:47:36;4.97;;;4.10;;
9819;SDS011;4949;48.482;9.206;2022-07-17T09:52:37;3.37;;;3.07;;
9819;SDS011;4949;48.482;9.206;2022-07-17T09:57:40;3.37;;;3.10;;
9819;SDS011;4949;48.482;9.206;2022-07-17T10:02:41;3.83;;;3.53;;
9819;SDS011;4949;48.482;9.206;2022-07-17T10:07:45;3.80;;;3.13;;
9819;SDS011;4949;48.482;9.206;2022-07-17T10:12:49;5.57;;;3.33;;
9819;SDS011;4949;48.482;9.206;2022-07-17T10:17:50;3.60;;;3.40;;
9819;SDS011;4949;48.482;9.206;2022-07-17T10:22:51;4.27;;;3.73;;
9819;SDS011;4949;48.482;9.206;2022-07-17T10:27:53;4.17;;;3.40;;
9819;SDS011;4949;48.482;9.206;2022-07-17T10:32:58;3.77;;;3.40;;
9819;SDS011;4949;48.482;9.206;2022-07-17T10:38:11;3.10;;;2.90;;
9819;SDS011;4949;48.482;9.206;2022-07-17T10:43:13;4.00;;;3.70;;
9819;SDS011;4949;48.482;9.206;2022-07-17T10:48:18;3.40;;;3.20;;
9819;SDS011;4949;48.482;9.206;2022-07-17T10:53:23;3.50;;;3.20;;
9819;SDS011;4949;48.482;9.206;2022-07-17T10:58:31;3.77;;;3.47;;
9819;SDS011;4949;48.482;9.206;2022-07-17T11:08:44;3.87;;;3.30;;
9819;SDS011;4949;48.482;9.206;2022-07-17T11:13:52;3.37;;;3.13;;
9819;SDS011;4949;48.482;9.206;2022-07-17T11:18:53;3.23;;;3.03;;
9819;SDS011;4949;48.482;9.206;2022-07-17T11:23:55;4.17;;;3.87;;
9819;SDS011;4949;48.482;9.206;2022-07-17T11:28:56;3.40;;;3.10;;
9819;SDS011;4949;48.482;9.206;2022-07-17T11:33:57;3.60;;;3.30;;
9819;SDS011;4949;48.482;9.206;2022-07-17T11:39:01;3.10;;;2.90;;
9819;SDS011;4949;48.482;9.206;2022-07-17T11:44:11;2.53;;;2.40;;
9819;SDS011;4949;48.482;9.206;2022-07-17T11:49:26;3.23;;;2.97;;
9819;SDS011;4949;48.482;9.206;2022-07-17T11:54:27;4.80;;;3.07;;
9819;SDS011;4949;48.482;9.206;2022-07-17T11:59:30;3.67;;;3.47;;
9819;SDS011;4949;48.482;9.206;2022-07-17T12:04:31;2.83;;;2.43;;
9819;SDS011;4949;48.482;9.206;2022-07-17T12:09:32;3.00;;;2.80;;
9819;SDS011;4949;48.482;9.206;2022-07-17T12:14:45;3.00;;;2.80;;
9819;SDS011;4949;48.482;9.206;2022-07-17T12:19:46;2.90;;;2.70;;
9819;SDS011;4949;48.482;9.206;2022-07-17T12:24:47;2.83;;;2.63;;
9819;SDS011;4949;48.482;9.206;2022-07-17T12:29:47;3.40;;;2.70;;
9819;SDS011;4949;48.482;9.206;2022-07-17T12:34:48;2.63;;;2.43;;
9819;SDS011;4949;48.482;9.206;2022-07-17T12:39:49;2.90;;;2.70;;
9819;SDS011;4949;48.482;9.206;2022-07-17T12:44:50;3.33;;;3.03;;
9819;SDS011;4949;48.482;9.206;2022-07-17T12:49:52;2.70;;;2.47;;
9819;SDS011;4949;48.482;9.206;2022-07-17T12:54:53;3.30;;;2.57;;
9819;SDS011;4949;48.482;9.206;2022-07-17T12:59:53;3.03;;;2.77;;
9819;SDS011;4949;48.482;9.206;2022-07-17T13:04:54;3.63;;;3.00;;
9819;SDS011;4949;48.482;9.206;2022-07-17T13:09:56;2.80;;;2.60;;
9819;SDS011;4949;48.482;9.206;2022-07-17T13:14:57;2.97;;;2.73;;
9819;SDS011;4949;48.482;9.206;2022-07-17T13:20:00;3.27;;;3.07;;
9819;SDS011;4949;48.482;9.206;2022-07-17T13:25:01;2.63;;;2.43;;
9819;SDS011;4949;48.482;9.206;2022-07-17T13:30:01;3.50;;;2.50;;
9819;SDS011;4949;48.482;9.206;2022-07-17T13:35:02;3.10;;;2.50;;
9819;SDS011;4949;48.482;9.206;2022-07-17T13:40:03;3.30;;;3.00;;
9819;SDS011;4949;48.482;9.206;2022-07-17T13:45:05;2.60;;;2.33;;
9819;SDS011;4949;48.482;9.206;2022-07-17T13:50:06;2.73;;;2.53;;
9819;SDS011;4949;48.482;9.206;2022-07-17T13:55:06;2.73;;;2.53;;
9819;SDS011;4949;48.482;9.206;2022-07-17T14:00:08;2.50;;;2.30;;
9819;SDS011;4949;48.482;9.206;2022-07-17T14:05:09;2.70;;;2.50;;
9819;SDS011;4949;48.482;9.206;2022-07-17T14:10:14;2.70;;;2.50;;
9819;SDS011;4949;48.482;9.206;2022-07-17T14:15:14;3.50;;;3.20;;
9819;SDS011;4949;48.482;9.206;2022-07-17T14:20:17;2.70;;;2.50;;
9819;SDS011;4949;48.482;9.206;2022-07-17T14:25:17;2.53;;;2.37;;
9819;SDS011;4949;48.482;9.206;2022-07-17T14:30:18;2.37;;;2.23;;
9819;SDS011;4949;48.482;9.206;2022-07-17T14:35:19;2.30;;;2.20;;
9819;SDS011;4949;48.482;9.206;2022-07-17T14:40:19;2.87;;;2.67;;
9819;SDS011;4949;48.482;9.206;2022-07-17T14:45:20;2.73;;;2.40;;
9819;SDS011;4949;48.482;9.206;2022-07-17T14:50:22;2.90;;;2.67;;
9819;SDS011;4949;48.482;9.206;2022-07-17T14:55:23;3.03;;;2.73;;
9819;SDS011;4949;48.482;9.206;2022-07-17T15:00:25;2.87;;;2.67;;
9819;SDS011;4949;48.482;9.206;2022-07-17T15:05:26;2.60;;;2.40;;
9819;SDS011;4949;48.482;9.206;2022-07-17T15:10:26;2.40;;;2.30;;
9819;SDS011;4949;48.482;9.206;2022-07-17T15:15:27;4.97;;;2.20;;
9819;SDS011;4949;48.482;9.206;2022-07-17T15:20:27;3.50;;;2.73;;
9819;SDS011;4949;48.482;9.206;2022-07-17T15:25:30;2.83;;;2.63;;
9819;SDS011;4949;48.482;9.206;2022-07-17T15:30:30;2.80;;;2.60;;
9819;SDS011;4949;48.482;9.206;2022-07-17T15:35:31;3.00;;;2.70;;
9819;SDS011;4949;48.482;9.206;2022-07-17T15:40:33;3.30;;;2.93;;
9819;SDS011;4949;48.482;9.206;2022-07-17T15:45:34;3.30;;;3.07;;
9819;SDS011;4949;48.482;9.206;2022-07-17T15:50:34;2.50;;;2.30;;
9819;SDS011;4949;48.482;9.206;2022-07-17T15:55:34;2.83;;;2.50;;
9819;SDS011;4949;48.482;9.206;2022-07-17T16:00:35;2.80;;;2.60;;
9819;SDS011;4949;48.482;9.206;2022-07-17T16:05:35;3.20;;;2.37;;
9819;SDS011;4949;48.482;9.206;2022-07-17T16:10:38;2.80;;;2.60;;
9819;SDS011;4949;48.482;9.206;2022-07-17T16:15:41;2.80;;;2.60;;
9819;SDS011;4949;48.482;9.206;2022-07-17T16:20:46;3.17;;;2.97;;
9819;SDS011;4949;48.482;9.206;2022-07-17T16:25:46;2.80;;;2.60;;
9819;SDS011;4949;48.482;9.206;2022-07-17T16:30:47;3.10;;;2.80;;
9819;SDS011;4949;48.482;9.206;2022-07-17T16:35:47;3.17;;;2.87;;
9819;SDS011;4949;48.482;9.206;2022-07-17T16:40:52;2.50;;;2.30;;
9819;SDS011;4949;48.482;9.206;2022-07-17T16:45:52;2.90;;;2.70;;
9819;SDS011;4949;48.482;9.206;2022-07-17T16:50:53;3.33;;;2.93;;
9819;SDS011;4949;48.482;9.206;2022-07-17T16:55:53;3.17;;;2.87;;
9819;SDS011;4949;48.482;9.206;2022-07-17T17:00:54;2.40;;;2.30;;
9819;SDS011;4949;48.482;9.206;2022-07-17T17:05:55;3.30;;;2.70;;
9819;SDS011;4949;48.482;9.206;2022-07-17T17:10:55;2.60;;;2.40;;
9819;SDS011;4949;48.482;9.206;2022-07-17T17:15:57;2.90;;;2.70;;
9819;SDS011;4949;48.482;9.206;2022-07-17T17:20:58;3.10;;;2.90;;
9819;SDS011;4949;48.482;9.206;2022-07-17T17:26:00;3.00;;;2.80;;
9819;SDS011;4949;48.482;9.206;2022-07-17T17:31:01;3.20;;;3.00;;
9819;SDS011;4949;48.482;9.206;2022-07-17T17:36:01;3.13;;;2.70;;
9819;SDS011;4949;48.482;9.206;2022-07-17T17:41:05;3.07;;;2.87;;
9819;SDS011;4949;48.482;9.206;2022-07-17T17:46:05;2.90;;;2.70;;
9819;SDS011;4949;48.482;9.206;2022-07-17T17:51:05;4.37;;;2.60;;
9819;SDS011;4949;48.482;9.206;2022-07-17T17:56:09;2.90;;;2.70;;
9819;SDS011;4949;48.482;9.206;2022-07-17T18:01:12;3.53;;;3.03;;
9819;SDS011;4949;48.482;9.206;2022-07-17T18:06:14;2.73;;;2.53;;
9819;SDS011;4949;48.482;9.206;2022-07-17T18:11:15;3.40;;;2.40;;
9819;SDS011;4949;48.482;9.206;2022-07-17T18:16:15;3.20;;;3.00;;
9819;SDS011;4949;48.482;9.206;2022-07-17T18:21:15;3.53;;;3.23;;
9819;SDS011;4949;48.482;9.206;2022-07-17T18:26:17;4.77;;;2.97;;
9819;SDS011;4949;48.482;9.206;2022-07-17T18:31:17;2.77;;;2.57;;
9819;SDS011;4949;48.482;9.206;2022-07-17T18:36:17;3.00;;;2.80;;
9819;SDS011;4949;48.482;9.206;2022-07-17T18:41:18;3.20;;;3.00;;
9819;SDS011;4949;48.482;9.206;2022-07-17T18:46:18;3.07;;;2.87;;
9819;SDS011;4949;48.482;9.206;2022-07-17T18:51:18;3.43;;;3.13;;
9819;SDS011;4949;48.482;9.206;2022-07-17T18:56:19;5.10;;;3.73;;
9819;SDS011;4949;48.482;9.206;2022-07-17T19:01:20;3.30;;;3.10;;
9819;SDS011;4949;48.482;9.206;2022-07-17T19:06:20;3.80;;;3.50;;
9819;SDS011;4949;48.482;9.206;2022-07-17T19:11:23;3.33;;;3.10;;
9819;SDS011;4949;48.482;9.206;2022-07-17T19:16:23;3.83;;;3.53;;
9819;SDS011;4949;48.482;9.206;2022-07-17T19:21:24;4.13;;;3.80;;
9819;SDS011;4949;48.482;9.206;2022-07-17T19:26:24;4.17;;;3.80;;
9819;SDS011;4949;48.482;9.206;2022-07-17T19:31:24;4.60;;;3.90;;
9819;SDS011;4949;48.482;9.206;2022-07-17T19:36:25;3.80;;;3.50;;
9819;SDS011;4949;48.482;9.206;2022-07-17T19:41:28;3.80;;;3.50;;
9819;SDS011;4949;48.482;9.206;2022-07-17T19:46:28;5.40;;;4.70;;
9819;SDS011;4949;48.482;9.206;2022-07-17T19:51:31;5.43;;;4.70;;
9819;SDS011;4949;48.482;9.206;2022-07-17T19:56:31;6.27;;;5.83;;
9819;SDS011;4949;48.482;9.206;2022-07-17T20:01:32;6.20;;;5.60;;
9819;SDS011;4949;48.482;9.206;2022-07-17T20:06:37;4.80;;;4.40;;
9819;SDS011;4949;48.482;9.206;2022-07-17T20:11:37;5.73;;;4.10;;
9819;SDS011;4949;48.482;9.206;2022-07-17T20:16:38;6.17;;;5.57;;
9819;SDS011;4949;48.482;9.206;2022-07-17T20:21:38;5.50;;;4.00;;
9819;SDS011;4949;48.482;9.206;2022-07-17T20:26:43;7.33;;;4.70;;
9819;SDS011;4949;48.482;9.206;2022-07-17T20:31:44;4.90;;;4.60;;
9819;SDS011;4949;48.482;9.206;2022-07-17T20:36:47;4.87;;;4.57;;
9819;SDS011;4949;48.482;9.206;2022-07-17T20:41:48;5.90;;;5.40;;
9819;SDS011;4949;48.482;9.206;2022-07-17T20:46:51;5.37;;;4.97;;
9819;SDS011;4949;48.482;9.206;2022-07-17T20:51:54;4.70;;;4.30;;
9819;SDS011;4949;48.482;9.206;2022-07-17T20:56:56;4.13;;;3.83;;
9819;SDS011;4949;48.482;9.206;2022-07-17T21:01:57;4.53;;;4.13;;
9819;SDS011;4949;48.482;9.206;2022-07-17T21:06:58;7.20;;;5.30;;
9819;SDS011;4949;48.482;9.206;2022-07-17T21:11:58;4.07;;;3.77;;
9819;SDS011;4949;48.482;9.206;2022-07-17T21:16:59;4.53;;;4.20;;
9819;SDS011;4949;48.482;9.206;2022-07-17T21:21:59;5.40;;;4.90;;
9819;SDS011;4949;48.482;9.206;2022-07-17T21:27:02;4.50;;;4.20;;
9819;SDS011;4949;48.482;9.206;2022-07-17T21:32:07;4.73;;;4.30;;
9819;SDS011;4949;48.482;9.206;2022-07-17T21:37:08;4.07;;;3.77;;
9819;SDS011;4949;48.482;9.206;2022-07-17T21:42:08;5.13;;;4.73;;
9819;SDS011;4949;48.482;9.206;2022-07-17T21:47:08;4.73;;;4.30;;
9819;SDS011;4949;48.482;9.206;2022-07-17T21:52:11;4.93;;;4.53;;
9819;SDS011;4949;48.482;9.206;2022-07-17T21:57:16;4.70;;;4.37;;
9819;SDS011;4949;48.482;9.206;2022-07-17T22:02:17;5.53;;;4.60;;
9819;SDS011;4949;48.482;9.206;2022-07-17T22:07:17;4.00;;;3.70;;
9819;SDS011;4949;48.482;9.206;2022-07-17T22:12:18;3.90;;;3.50;;
9819;SDS011;4949;48.482;9.206;2022-07-17T22:17:18;3.70;;;3.40;;
9819;SDS011;4949;48.482;9.206;2022-07-17T22:22:19;4.30;;;4.00;;
9819;SDS011;4949;48.482;9.206;2022-07-17T22:27:22;4.27;;;3.87;;
9819;SDS011;4949;48.482;9.206;2022-07-17T22:32:25;5.20;;;4.70;;
9819;SDS011;4949;48.482;9.206;2022-07-17T22:37:28;6.03;;;5.47;;
9819;SDS011;4949;48.482;9.206;2022-07-17T22:42:31;4.87;;;4.37;;
9819;SDS011;4949;48.482;9.206;2022-07-17T22:47:31;3.97;;;3.67;;
9819;SDS011;4949;48.482;9.206;2022-07-17T22:52:32;3.73;;;3.30;;
9819;SDS011;4949;48.482;9.206;2022-07-17T22:57:32;3.83;;;3.47;;
9819;SDS011;4949;48.482;9.206;2022-07-17T23:02:37;3.87;;;3.57;;
9819;SDS011;4949;48.482;9.206;2022-07-17T23:07:38;4.33;;;3.53;;
9819;SDS011;4949;48.482;9.206;2022-07-17T23:12:38;4.20;;;3.90;;
9819;SDS011;4949;48.482;9.206;2022-07-17T23:17:41;3.80;;;3.50;;
9819;SDS011;4949;48.482;9.206;2022-07-17T23:22:42;4.07;;;3.77;;
9819;SDS011;4949;48.482;9.206;2022-07-17T23:27:45;3.87;;;3.57;;
9819;SDS011;4949;48.482;9.206;2022-07-17T23:32:47;4.40;;;4.10;;
9819;SDS011;4949;48.482;9.206;2022-07-17T23:37:50;4.20;;;3.90;;
9819;SDS011;4949;48.482;9.206;2022-07-17T23:42:53;3.97;;;3.50;;
9819;SDS011;4949;48.482;9.206;2022-07-17T23:47:53;4.40;;;4.00;;
9819;SDS011;4949;48.482;9.206;2022-07-17T23:52:56;3.80;;;3.50;;
9819;SDS011;4949;48.482;9.206;2022-07-17T23:57:59;5.40;;;3.40;;
